sensor_id;sensor_type;location;lat;lon;timestamp;pressure;altitude;pressure_sealevel;temperature;humidity
52105;BME280;38103;42.776;23.112;2022-09-09T00:04:32;94112.75;;;14.81;83.04
52105;BME280;38103;42.776;23.112;2022-09-09T00:07:25;94207.38;;;15.43;82.35
52105;BME280;38103;42.776;23.112;2022-09-09T00:10:27;94203.97;;;15.58;83.47
52105;BME280;38103;42.776;23.112;2022-09-09T00:15:30;94193.09;;;15.70;82.47
52105;BME280;38103;42.776;23.112;2022-09-09T00:18:11;94108.69;;;15.17;82.82
52105;BME280;38103;42.776;23.112;2022-09-09T00:23:30;94186.19;;;15.85;81.48
52105;BME280;38103;42.776;23.112;2022-09-09T00:26:13;94184.88;;;15.88;81.74
52105;BME280;38103;42.776;23.112;2022-09-09T00:31:28;94090.63;;;15.29;81.40
52105;BME280;38103;42.776;23.112;2022-09-09T00:33:59;94067.16;;;15.21;81.86
52105;BME280;38103;42.776;23.112;2022-09-09T00:36:26;94120.50;;;15.42;81.22
52105;BME280;38103;42.776;23.112;2022-09-09T00:38:59;94187.25;;;15.79;81.55
52105;BME280;38103;42.776;23.112;2022-09-09T00:44:35;94189.94;;;15.79;82.21
52105;BME280;38103;42.776;23.112;2022-09-09T00:52:49;94197.88;;;15.68;81.78
52105;BME280;38103;42.776;23.112;2022-09-09T00:58:09;94177.22;;;15.32;83.02
52105;BME280;38103;42.776;23.112;2022-09-09T01:00:43;94160.84;;;15.07;83.73
52105;BME280;38103;42.776;23.112;2022-09-09T01:05:57;94179.19;;;15.04;85.58
52105;BME280;38103;42.776;23.112;2022-09-09T01:08:36;94180.94;;;14.88;86.16
52105;BME280;38103;42.776;23.112;2022-09-09T01:11:10;94098.03;;;14.30;86.29
52105;BME280;38103;42.776;23.112;2022-09-09T01:13:42;94182.59;;;14.94;86.26
52105;BME280;38103;42.776;23.112;2022-09-09T01:16:11;94174.50;;;14.83;86.93
52105;BME280;38103;42.776;23.112;2022-09-09T01:18:43;94178.88;;;15.00;86.82
52105;BME280;38103;42.776;23.112;2022-09-09T01:21:30;94185.06;;;15.06;85.67
52105;BME280;38103;42.776;23.112;2022-09-09T01:24:08;94190.66;;;15.04;85.81
52105;BME280;38103;42.776;23.112;2022-09-09T01:26:42;94196.22;;;15.03;86.15
52105;BME280;38103;42.776;23.112;2022-09-09T01:29:10;94190.47;;;14.83;86.98
52105;BME280;38103;42.776;23.112;2022-09-09T01:31:41;94199.50;;;14.82;87.06
52105;BME280;38103;42.776;23.112;2022-09-09T01:34:16;94199.50;;;14.82;86.98
52105;BME280;38103;42.776;23.112;2022-09-09T01:37:05;94199.50;;;14.82;86.83
52105;BME280;38103;42.776;23.112;2022-09-09T01:39:33;94103.25;;;14.14;86.86
52105;BME280;38103;42.776;23.112;2022-09-09T01:42:00;94181.28;;;14.63;87.36
52105;BME280;38103;42.776;23.112;2022-09-09T01:44:27;94174.28;;;14.52;88.59
52105;BME280;38103;42.776;23.112;2022-09-09T01:46:54;94192.63;;;14.53;88.86
52105;BME280;38103;42.776;23.112;2022-09-09T01:49:19;94190.41;;;14.40;89.80
52105;BME280;38103;42.776;23.112;2022-09-09T01:51:50;94193.47;;;14.26;90.29
52105;BME280;38103;42.776;23.112;2022-09-09T01:54:18;94196.88;;;14.22;90.72
52105;BME280;38103;42.776;23.112;2022-09-09T01:56:50;94190.16;;;14.41;91.08
52105;BME280;38103;42.776;23.112;2022-09-09T02:02:17;94180.13;;;14.21;91.01
52105;BME280;38103;42.776;23.112;2022-09-09T02:04:49;94183.13;;;14.02;91.40
52105;BME280;38103;42.776;23.112;2022-09-09T02:07:40;94012.59;;;12.77;92.42
52105;BME280;38103;42.776;23.112;2022-09-09T02:10:31;94182.41;;;14.07;93.04
52105;BME280;38103;42.776;23.112;2022-09-09T02:13:07;94185.44;;;14.21;92.25
52105;BME280;38103;42.776;23.112;2022-09-09T02:15:57;94186.84;;;14.29;91.30
52105;BME280;38103;42.776;23.112;2022-09-09T02:18:36;94185.88;;;14.13;91.91
52105;BME280;38103;42.776;23.112;2022-09-09T02:21:05;94187.75;;;14.12;92.01
52105;BME280;38103;42.776;23.112;2022-09-09T02:23:32;93981.59;;;12.60;91.95
52105;BME280;38103;42.776;23.112;2022-09-09T02:26:00;94160.28;;;13.79;91.80
52105;BME280;38103;42.776;23.112;2022-09-09T02:28:29;94194.47;;;13.92;93.04
52105;BME280;38103;42.776;23.112;2022-09-09T02:30:56;94177.91;;;13.85;93.25
52105;BME280;38103;42.776;23.112;2022-09-09T02:33:25;94204.72;;;14.06;92.94
52105;BME280;38103;42.776;23.112;2022-09-09T02:35:52;94202.00;;;14.01;93.39
52105;BME280;38103;42.776;23.112;2022-09-09T02:38:24;94079.03;;;13.10;93.83
52105;BME280;38103;42.776;23.112;2022-09-09T02:40:51;94202.88;;;13.84;94.14
52105;BME280;38103;42.776;23.112;2022-09-09T02:43:17;94175.13;;;13.74;93.93
52105;BME280;38103;42.776;23.112;2022-09-09T02:51:32;94206.47;;;13.72;94.99
52105;BME280;38103;42.776;23.112;2022-09-09T02:56:40;94096.63;;;12.94;96.47
52105;BME280;38103;42.776;23.112;2022-09-09T02:59:07;94170.19;;;13.38;97.48
52105;BME280;38103;42.776;23.112;2022-09-09T03:01:32;94188.78;;;13.61;96.86
52105;BME280;38103;42.776;23.112;2022-09-09T03:03:57;94192.19;;;13.79;96.37
52105;BME280;38103;42.776;23.112;2022-09-09T03:06:23;94193.38;;;13.88;95.84
52105;BME280;38103;42.776;23.112;2022-09-09T03:08:48;94023.19;;;12.77;95.45
52105;BME280;38103;42.776;23.112;2022-09-09T03:11:16;94113.59;;;13.38;95.27
52105;BME280;38103;42.776;23.112;2022-09-09T03:13:41;94120.09;;;13.47;95.61
52105;BME280;38103;42.776;23.112;2022-09-09T03:16:06;94074.06;;;13.14;95.21
52105;BME280;38103;42.776;23.112;2022-09-09T03:18:32;94182.84;;;13.99;95.05
52105;BME280;38103;42.776;23.112;2022-09-09T03:20:57;94184.53;;;14.10;94.37
52105;BME280;38103;42.776;23.112;2022-09-09T03:23:24;94180.34;;;14.14;93.93
52105;BME280;38103;42.776;23.112;2022-09-09T03:25:50;94181.81;;;14.05;94.08
52105;BME280;38103;42.776;23.112;2022-09-09T03:28:17;94018.25;;;12.63;96.43
52105;BME280;38103;42.776;23.112;2022-09-09T03:30:42;94180.19;;;13.54;97.68
52105;BME280;38103;42.776;23.112;2022-09-09T03:33:08;94196.59;;;13.68;97.18
52105;BME280;38103;42.776;23.112;2022-09-09T03:35:33;94195.97;;;13.83;96.65
52105;BME280;38103;42.776;23.112;2022-09-09T03:37:58;94199.16;;;13.85;96.18
52105;BME280;38103;42.776;23.112;2022-09-09T03:40:24;94190.41;;;13.62;97.26
52105;BME280;38103;42.776;23.112;2022-09-09T03:42:49;94196.59;;;13.50;98.01
52105;BME280;38103;42.776;23.112;2022-09-09T03:45:15;94046.59;;;12.40;98.30
52105;BME280;38103;42.776;23.112;2022-09-09T03:47:40;94196.53;;;13.45;98.76
52105;BME280;38103;42.776;23.112;2022-09-09T03:50:07;94188.00;;;13.60;98.35
52105;BME280;38103;42.776;23.112;2022-09-09T03:52:38;94192.59;;;13.65;98.08
52105;BME280;38103;42.776;23.112;2022-09-09T03:55:05;94186.72;;;13.63;98.00
52105;BME280;38103;42.776;23.112;2022-09-09T03:57:31;94196.34;;;13.69;98.38
52105;BME280;38103;42.776;23.112;2022-09-09T03:59:59;94177.91;;;13.40;99.54
52105;BME280;38103;42.776;23.112;2022-09-09T04:02:26;94070.09;;;12.94;98.69
52105;BME280;38103;42.776;23.112;2022-09-09T04:04:51;94192.53;;;13.43;99.34
52105;BME280;38103;42.776;23.112;2022-09-09T04:07:17;94194.28;;;13.54;99.63
52105;BME280;38103;42.776;23.112;2022-09-09T04:09:42;94194.34;;;13.37;100.00
52105;BME280;38103;42.776;23.112;2022-09-09T04:12:07;94191.06;;;13.29;100.00
52105;BME280;38103;42.776;23.112;2022-09-09T04:14:33;94196.38;;;13.29;100.00
52105;BME280;38103;42.776;23.112;2022-09-09T04:16:58;94198.50;;;13.33;100.00
52105;BME280;38103;42.776;23.112;2022-09-09T04:19:25;94196.06;;;13.48;100.00
52105;BME280;38103;42.776;23.112;2022-09-09T04:21:50;94193.69;;;13.69;100.00
52105;BME280;38103;42.776;23.112;2022-09-09T04:24:17;94192.16;;;13.73;100.00
52105;BME280;38103;42.776;23.112;2022-09-09T04:26:43;94198.94;;;13.64;100.00
52105;BME280;38103;42.776;23.112;2022-09-09T04:29:08;94031.38;;;12.53;100.00
52105;BME280;38103;42.776;23.112;2022-09-09T04:31:34;94198.56;;;13.78;100.00
52105;BME280;38103;42.776;23.112;2022-09-09T04:33:59;94039.53;;;12.91;100.00
52105;BME280;38103;42.776;23.112;2022-09-09T04:36:30;94202.34;;;14.10;100.00
52105;BME280;38103;42.776;23.112;2022-09-09T04:38:56;94192.13;;;14.24;100.00
52105;BME280;38103;42.776;23.112;2022-09-09T04:41:22;94178.81;;;14.24;100.00
52105;BME280;38103;42.776;23.112;2022-09-09T04:43:47;94175.25;;;14.40;100.00
52105;BME280;38103;42.776;23.112;2022-09-09T04:46:13;94169.84;;;14.63;99.34
52105;BME280;38103;42.776;23.112;2022-09-09T04:48:38;94185.31;;;15.04;99.06
52105;BME280;38103;42.776;23.112;2022-09-09T04:51:06;94180.88;;;15.21;97.48
52105;BME280;38103;42.776;23.112;2022-09-09T04:53:33;94180.16;;;15.36;97.30
52105;BME280;38103;42.776;23.112;2022-09-09T04:56:11;94183.50;;;15.69;95.80
52105;BME280;38103;42.776;23.112;2022-09-09T04:58:38;94154.72;;;15.71;94.50
52105;BME280;38103;42.776;23.112;2022-09-09T05:01:05;94173.50;;;16.13;94.15
52105;BME280;38103;42.776;23.112;2022-09-09T05:03:30;94179.94;;;16.33;89.06
52105;BME280;38103;42.776;23.112;2022-09-09T05:06:08;94181.53;;;16.66;91.24
52105;BME280;38103;42.776;23.112;2022-09-09T05:08:39;94181.50;;;17.07;89.91
52105;BME280;38103;42.776;23.112;2022-09-09T05:11:25;94181.53;;;17.18;85.79
52105;BME280;38103;42.776;23.112;2022-09-09T05:13:52;94176.16;;;17.28;82.95
52105;BME280;38103;42.776;23.112;2022-09-09T05:16:19;94134.47;;;17.22;79.91
52105;BME280;38103;42.776;23.112;2022-09-09T05:18:45;94173.97;;;17.46;80.52
52105;BME280;38103;42.776;23.112;2022-09-09T05:21:12;94183.41;;;17.89;77.78
52105;BME280;38103;42.776;23.112;2022-09-09T05:23:38;94184.81;;;18.32;79.02
52105;BME280;38103;42.776;23.112;2022-09-09T05:26:04;94193.84;;;18.41;75.66
52105;BME280;38103;42.776;23.112;2022-09-09T05:28:31;94189.16;;;18.63;73.99
52105;BME280;38103;42.776;23.112;2022-09-09T05:31:00;94089.06;;;18.18;73.08
52105;BME280;38103;42.776;23.112;2022-09-09T05:33:26;94116.84;;;18.63;71.05
52105;BME280;38103;42.776;23.112;2022-09-09T05:36:00;94191.03;;;18.92;70.90
52105;BME280;38103;42.776;23.112;2022-09-09T05:38:27;94126.34;;;18.50;71.48
52105;BME280;38103;42.776;23.112;2022-09-09T05:40:53;94189.56;;;19.05;70.67
52105;BME280;38103;42.776;23.112;2022-09-09T05:43:19;94185.34;;;19.53;70.51
52105;BME280;38103;42.776;23.112;2022-09-09T05:45:48;94180.97;;;19.63;67.95
52105;BME280;38103;42.776;23.112;2022-09-09T05:48:14;94191.81;;;19.52;69.52
52105;BME280;38103;42.776;23.112;2022-09-09T05:50:41;94182.31;;;19.85;68.09
52105;BME280;38103;42.776;23.112;2022-09-09T05:53:08;94185.56;;;20.26;66.13
52105;BME280;38103;42.776;23.112;2022-09-09T05:55:33;94197.28;;;20.69;66.00
52105;BME280;38103;42.776;23.112;2022-09-09T05:57:59;94200.91;;;20.78;61.61
52105;BME280;38103;42.776;23.112;2022-09-09T06:00:25;94198.13;;;20.83;61.09
52105;BME280;38103;42.776;23.112;2022-09-09T06:02:54;94195.78;;;20.96;60.88
52105;BME280;38103;42.776;23.112;2022-09-09T06:05:19;94197.22;;;21.07;61.23
52105;BME280;38103;42.776;23.112;2022-09-09T06:07:45;94202.16;;;21.00;60.93
52105;BME280;38103;42.776;23.112;2022-09-09T06:10:11;94199.84;;;20.60;61.60
52105;BME280;38103;42.776;23.112;2022-09-09T06:12:39;94204.09;;;20.80;61.05
52105;BME280;38103;42.776;23.112;2022-09-09T06:15:05;94206.09;;;20.88;60.91
52105;BME280;38103;42.776;23.112;2022-09-09T06:17:30;94202.75;;;20.97;61.11
52105;BME280;38103;42.776;23.112;2022-09-09T06:19:56;94199.28;;;21.44;59.86
52105;BME280;38103;42.776;23.112;2022-09-09T06:22:22;94140.22;;;20.77;60.55
52105;BME280;38103;42.776;23.112;2022-09-09T06:24:47;94215.56;;;21.19;58.98
52105;BME280;38103;42.776;23.112;2022-09-09T06:27:13;94198.38;;;20.68;61.42
52105;BME280;38103;42.776;23.112;2022-09-09T06:29:38;94176.31;;;21.04;58.97
52105;BME280;38103;42.776;23.112;2022-09-09T06:32:04;94143.63;;;20.97;59.74
52105;BME280;38103;42.776;23.112;2022-09-09T06:34:29;94190.28;;;21.35;59.07
52105;BME280;38103;42.776;23.112;2022-09-09T06:36:55;94189.31;;;21.44;59.66
52105;BME280;38103;42.776;23.112;2022-09-09T06:39:23;94193.91;;;21.44;59.10
52105;BME280;38103;42.776;23.112;2022-09-09T06:41:48;94122.78;;;21.22;59.30
52105;BME280;38103;42.776;23.112;2022-09-09T06:44:14;94184.88;;;22.19;57.17
52105;BME280;38103;42.776;23.112;2022-09-09T06:46:40;94199.47;;;22.79;57.49
52105;BME280;38103;42.776;23.112;2022-09-09T06:49:08;94084.25;;;21.92;56.18
52105;BME280;38103;42.776;23.112;2022-09-09T06:51:35;94207.50;;;22.70;56.14
52105;BME280;38103;42.776;23.112;2022-09-09T06:54:01;94207.50;;;22.70;54.81
52105;BME280;38103;42.776;23.112;2022-09-09T06:56:34;94208.34;;;22.79;56.16
52105;BME280;38103;42.776;23.112;2022-09-09T06:59:02;94200.59;;;23.09;55.11
52105;BME280;38103;42.776;23.112;2022-09-09T07:01:30;94204.28;;;23.14;54.68
52105;BME280;38103;42.776;23.112;2022-09-09T07:03:57;94197.66;;;23.20;53.84
52105;BME280;38103;42.776;23.112;2022-09-09T07:06:32;94188.34;;;23.35;53.47
52105;BME280;38103;42.776;23.112;2022-09-09T07:09:04;94100.91;;;23.27;53.98
52105;BME280;38103;42.776;23.112;2022-09-09T07:11:32;94188.59;;;23.97;50.08
52105;BME280;38103;42.776;23.112;2022-09-09T07:13:59;94188.81;;;24.28;50.16
52105;BME280;38103;42.776;23.112;2022-09-09T07:16:26;94189.16;;;24.35;52.75
52105;BME280;38103;42.776;23.112;2022-09-09T07:18:53;94186.31;;;24.58;50.14
52105;BME280;38103;42.776;23.112;2022-09-09T07:21:20;94143.34;;;24.57;49.53
52105;BME280;38103;42.776;23.112;2022-09-09T07:23:46;94153.53;;;24.69;48.36
52105;BME280;38103;42.776;23.112;2022-09-09T07:26:15;94186.69;;;23.98;49.23
52105;BME280;38103;42.776;23.112;2022-09-09T07:28:41;94177.03;;;24.24;51.97
52105;BME280;38103;42.776;23.112;2022-09-09T07:31:12;94186.91;;;24.19;50.45
52105;BME280;38103;42.776;23.112;2022-09-09T07:33:39;94190.06;;;23.54;50.41
52105;BME280;38103;42.776;23.112;2022-09-09T07:36:06;94192.06;;;23.80;50.50
52105;BME280;38103;42.776;23.112;2022-09-09T07:38:43;94189.81;;;23.41;51.34
52105;BME280;38103;42.776;23.112;2022-09-09T07:41:13;94202.44;;;23.23;51.42
52105;BME280;38103;42.776;23.112;2022-09-09T07:43:40;94181.34;;;23.66;52.29
52105;BME280;38103;42.776;23.112;2022-09-09T07:46:06;94191.16;;;23.53;51.87
52105;BME280;38103;42.776;23.112;2022-09-09T07:48:32;94197.59;;;23.43;51.75
52105;BME280;38103;42.776;23.112;2022-09-09T07:51:09;94197.41;;;22.61;52.53
52105;BME280;38103;42.776;23.112;2022-09-09T07:53:36;94192.75;;;22.53;55.20
52105;BME280;38103;42.776;23.112;2022-09-09T07:56:09;94197.16;;;22.49;55.85
52105;BME280;38103;42.776;23.112;2022-09-09T07:58:37;94192.31;;;22.74;53.05
52105;BME280;38103;42.776;23.112;2022-09-09T08:01:20;94197.91;;;23.09;53.18
52105;BME280;38103;42.776;23.112;2022-09-09T08:03:51;94187.41;;;23.31;54.50
52105;BME280;38103;42.776;23.112;2022-09-09T08:06:17;94194.75;;;23.39;52.53
52105;BME280;38103;42.776;23.112;2022-09-09T08:08:42;94191.66;;;23.23;53.68
52105;BME280;38103;42.776;23.112;2022-09-09T08:11:14;94185.72;;;23.85;56.98
52105;BME280;38103;42.776;23.112;2022-09-09T08:13:40;94188.34;;;23.26;51.94
52105;BME280;38103;42.776;23.112;2022-09-09T08:18:32;94194.16;;;22.87;55.31
52105;BME280;38103;42.776;23.112;2022-09-09T08:20:57;94188.19;;;22.99;55.60
52105;BME280;38103;42.776;23.112;2022-09-09T08:23:22;94192.16;;;23.02;54.99
52105;BME280;38103;42.776;23.112;2022-09-09T08:25:48;94187.09;;;23.01;55.22
52105;BME280;38103;42.776;23.112;2022-09-09T08:28:15;94189.38;;;22.84;56.18
52105;BME280;38103;42.776;23.112;2022-09-09T08:30:41;94178.94;;;22.92;55.15
52105;BME280;38103;42.776;23.112;2022-09-09T08:33:06;94183.88;;;22.52;57.13
52105;BME280;38103;42.776;23.112;2022-09-09T08:35:32;94188.13;;;22.68;56.39
52105;BME280;38103;42.776;23.112;2022-09-09T08:37:58;94182.22;;;22.80;56.47
52105;BME280;38103;42.776;23.112;2022-09-09T08:40:29;94181.03;;;22.95;57.48
52105;BME280;38103;42.776;23.112;2022-09-09T08:42:59;94168.97;;;23.24;56.96
52105;BME280;38103;42.776;23.112;2022-09-09T08:45:33;94176.25;;;23.55;57.14
52105;BME280;38103;42.776;23.112;2022-09-09T08:48:13;94176.66;;;23.81;55.80
52105;BME280;38103;42.776;23.112;2022-09-09T08:50:41;94182.06;;;23.40;53.51
52105;BME280;38103;42.776;23.112;2022-09-09T08:53:14;94185.59;;;23.49;53.46
52105;BME280;38103;42.776;23.112;2022-09-09T08:55:48;94175.50;;;23.32;54.15
52105;BME280;38103;42.776;23.112;2022-09-09T09:08:51;94180.25;;;23.26;55.97
52105;BME280;38103;42.776;23.112;2022-09-09T09:11:19;94179.34;;;23.40;54.81
52105;BME280;38103;42.776;23.112;2022-09-09T09:18:51;94176.31;;;23.73;56.42
52105;BME280;38103;42.776;23.112;2022-09-09T09:23:57;94164.22;;;23.62;55.36
52105;BME280;38103;42.776;23.112;2022-09-09T09:26:26;94162.97;;;23.68;54.52
52105;BME280;38103;42.776;23.112;2022-09-09T09:28:55;94154.56;;;23.70;53.17
52105;BME280;38103;42.776;23.112;2022-09-09T09:31:22;94156.44;;;23.60;55.39
52105;BME280;38103;42.776;23.112;2022-09-09T09:33:55;94155.78;;;23.54;54.86
52105;BME280;38103;42.776;23.112;2022-09-09T09:36:33;94158.38;;;23.77;55.28
52105;BME280;38103;42.776;23.112;2022-09-09T09:39:01;94158.72;;;23.44;54.23
52105;BME280;38103;42.776;23.112;2022-09-09T09:41:34;94151.81;;;23.61;55.20
52105;BME280;38103;42.776;23.112;2022-09-09T09:44:01;94165.53;;;23.73;56.19
52105;BME280;38103;42.776;23.112;2022-09-09T09:46:27;94162.69;;;23.87;56.66
52105;BME280;38103;42.776;23.112;2022-09-09T09:48:57;94075.88;;;23.36;56.38
52105;BME280;38103;42.776;23.112;2022-09-09T09:51:23;94167.00;;;23.88;55.34
52105;BME280;38103;42.776;23.112;2022-09-09T09:53:49;94171.28;;;23.98;56.56
52105;BME280;38103;42.776;23.112;2022-09-09T09:56:26;94165.56;;;23.91;56.82
52105;BME280;38103;42.776;23.112;2022-09-09T09:58:53;94157.00;;;24.07;57.84
52105;BME280;38103;42.776;23.112;2022-09-09T10:01:25;94166.53;;;24.13;57.23
52105;BME280;38103;42.776;23.112;2022-09-09T10:03:54;94172.72;;;24.22;57.51
52105;BME280;38103;42.776;23.112;2022-09-09T10:06:34;94178.00;;;24.28;57.35
52105;BME280;38103;42.776;23.112;2022-09-09T10:09:01;94165.78;;;24.30;56.62
52105;BME280;38103;42.776;23.112;2022-09-09T10:14:21;94179.09;;;24.18;58.57
52105;BME280;38103;42.776;23.112;2022-09-09T10:19:37;94190.66;;;24.00;58.64
52105;BME280;38103;42.776;23.112;2022-09-09T10:28:23;94188.78;;;24.10;60.38
52105;BME280;38103;42.776;23.112;2022-09-09T10:33:49;94186.19;;;23.87;59.90
52105;BME280;38103;42.776;23.112;2022-09-09T10:36:22;94190.63;;;23.83;59.71
52105;BME280;38103;42.776;23.112;2022-09-09T10:50:32;94190.59;;;24.50;55.51
52105;BME280;38103;42.776;23.112;2022-09-09T10:53:32;94187.56;;;24.34;58.90
52105;BME280;38103;42.776;23.112;2022-09-09T10:56:08;94189.44;;;24.25;59.65
52105;BME280;38103;42.776;23.112;2022-09-09T10:58:45;94188.47;;;24.20;60.62
52105;BME280;38103;42.776;23.112;2022-09-09T11:01:17;94183.69;;;24.17;61.46
52105;BME280;38103;42.776;23.112;2022-09-09T11:03:43;94185.13;;;24.15;59.71
52105;BME280;38103;42.776;23.112;2022-09-09T11:06:17;94170.84;;;24.14;60.00
52105;BME280;38103;42.776;23.112;2022-09-09T11:08:43;94173.53;;;24.14;59.60
52105;BME280;38103;42.776;23.112;2022-09-09T11:16:39;94158.16;;;24.32;60.34
52105;BME280;38103;42.776;23.112;2022-09-09T11:21:42;94157.69;;;24.39;62.17
52105;BME280;38103;42.776;23.112;2022-09-09T11:24:22;94144.00;;;24.44;60.98
52105;BME280;38103;42.776;23.112;2022-09-09T11:26:55;94132.91;;;24.37;61.67
52105;BME280;38103;42.776;23.112;2022-09-09T11:29:39;94118.22;;;24.56;62.38
52105;BME280;38103;42.776;23.112;2022-09-09T11:32:28;94121.56;;;24.62;62.77
52105;BME280;38103;42.776;23.112;2022-09-09T11:40:36;94105.72;;;24.33;64.34
52105;BME280;38103;42.776;23.112;2022-09-09T11:43:11;94109.34;;;24.47;65.97
52105;BME280;38103;42.776;23.112;2022-09-09T11:45:41;94102.03;;;24.56;68.56
52105;BME280;38103;42.776;23.112;2022-09-09T11:48:29;94089.78;;;24.59;66.18
52105;BME280;38103;42.776;23.112;2022-09-09T11:51:08;94093.75;;;24.61;65.48
52105;BME280;38103;42.776;23.112;2022-09-09T11:53:35;94051.22;;;24.40;67.48
52105;BME280;38103;42.776;23.112;2022-09-09T11:56:13;94084.47;;;24.80;67.50
52105;BME280;38103;42.776;23.112;2022-09-09T11:58:42;94081.03;;;24.71;65.47
52105;BME280;38103;42.776;23.112;2022-09-09T12:06:43;94054.28;;;24.78;65.29
52105;BME280;38103;42.776;23.112;2022-09-09T12:19:40;94075.63;;;25.19;62.85
52105;BME280;38103;42.776;23.112;2022-09-09T12:25:00;94062.28;;;25.44;61.30
52105;BME280;38103;42.776;23.112;2022-09-09T12:27:40;94056.75;;;25.01;62.76
52105;BME280;38103;42.776;23.112;2022-09-09T12:30:14;94062.41;;;24.69;65.10
52105;BME280;38103;42.776;23.112;2022-09-09T12:32:40;94054.00;;;24.71;63.42
52105;BME280;38103;42.776;23.112;2022-09-09T12:35:19;94058.25;;;24.72;64.05
52105;BME280;38103;42.776;23.112;2022-09-09T12:38:15;94050.56;;;25.00;64.38
52105;BME280;38103;42.776;23.112;2022-09-09T12:40:56;94057.44;;;24.80;62.08
52105;BME280;38103;42.776;23.112;2022-09-09T12:43:24;94046.75;;;24.93;63.55
52105;BME280;38103;42.776;23.112;2022-09-09T12:45:51;94039.25;;;25.07;63.50
52105;BME280;38103;42.776;23.112;2022-09-09T12:48:27;93968.41;;;24.75;62.70
52105;BME280;38103;42.776;23.112;2022-09-09T12:50:55;94045.22;;;25.22;62.33
52105;BME280;38103;42.776;23.112;2022-09-09T12:56:00;94039.16;;;25.25;60.38
52105;BME280;38103;42.776;23.112;2022-09-09T12:58:29;94043.88;;;25.07;61.47
52105;BME280;38103;42.776;23.112;2022-09-09T13:00:58;94037.50;;;25.03;61.57
52105;BME280;38103;42.776;23.112;2022-09-09T13:03:25;94038.84;;;25.18;62.67
52105;BME280;38103;42.776;23.112;2022-09-09T13:05:52;94027.97;;;25.36;61.82
52105;BME280;38103;42.776;23.112;2022-09-09T13:08:18;94029.16;;;25.47;60.99
52105;BME280;38103;42.776;23.112;2022-09-09T13:10:56;94032.69;;;25.39;60.74
52105;BME280;38103;42.776;23.112;2022-09-09T13:13:26;94040.69;;;24.96;61.05
52105;BME280;38103;42.776;23.112;2022-09-09T13:15:57;94036.38;;;24.95;61.71
52105;BME280;38103;42.776;23.112;2022-09-09T13:18:26;94031.94;;;24.99;62.46
52105;BME280;38103;42.776;23.112;2022-09-09T13:20:52;93955.22;;;24.34;60.94
52105;BME280;38103;42.776;23.112;2022-09-09T13:23:19;94017.53;;;24.77;61.55
52105;BME280;38103;42.776;23.112;2022-09-09T13:28:47;94016.13;;;24.71;62.01
52105;BME280;38103;42.776;23.112;2022-09-09T13:31:39;94005.16;;;24.67;63.53
52105;BME280;38103;42.776;23.112;2022-09-09T13:34:27;93999.81;;;24.49;64.24
52105;BME280;38103;42.776;23.112;2022-09-09T13:37:05;94009.38;;;24.47;62.81
52105;BME280;38103;42.776;23.112;2022-09-09T13:39:36;93984.19;;;23.71;63.71
52105;BME280;38103;42.776;23.112;2022-09-09T13:42:03;94002.31;;;23.71;65.10
52105;BME280;38103;42.776;23.112;2022-09-09T13:44:31;93996.59;;;23.72;64.72
52105;BME280;38103;42.776;23.112;2022-09-09T13:47:01;94001.81;;;23.77;65.39
52105;BME280;38103;42.776;23.112;2022-09-09T13:49:29;93994.34;;;23.92;67.22
52105;BME280;38103;42.776;23.112;2022-09-09T13:52:09;93994.22;;;23.88;65.35
52105;BME280;38103;42.776;23.112;2022-09-09T13:54:35;94003.88;;;23.98;63.32
52105;BME280;38103;42.776;23.112;2022-09-09T13:57:00;93996.56;;;23.90;65.65
52105;BME280;38103;42.776;23.112;2022-09-09T13:59:26;93932.75;;;23.76;65.65
52105;BME280;38103;42.776;23.112;2022-09-09T14:01:52;93996.06;;;24.24;65.76
52105;BME280;38103;42.776;23.112;2022-09-09T14:04:19;93934.03;;;23.70;61.73
52105;BME280;38103;42.776;23.112;2022-09-09T14:06:48;93993.84;;;24.08;63.15
52105;BME280;38103;42.776;23.112;2022-09-09T14:09:16;93952.75;;;23.93;63.31
52105;BME280;38103;42.776;23.112;2022-09-09T14:11:42;93986.22;;;24.10;62.75
52105;BME280;38103;42.776;23.112;2022-09-09T14:14:08;93990.03;;;24.00;61.30
52105;BME280;38103;42.776;23.112;2022-09-09T14:16:33;93987.81;;;24.11;62.32
52105;BME280;38103;42.776;23.112;2022-09-09T14:18:58;93989.75;;;24.02;61.17
52105;BME280;38103;42.776;23.112;2022-09-09T14:21:24;93943.41;;;23.73;61.40
52105;BME280;38103;42.776;23.112;2022-09-09T14:23:50;93981.66;;;24.02;64.16
52105;BME280;38103;42.776;23.112;2022-09-09T14:26:15;94001.91;;;24.26;64.08
52105;BME280;38103;42.776;23.112;2022-09-09T14:28:41;93991.16;;;24.08;61.95
52105;BME280;38103;42.776;23.112;2022-09-09T14:31:07;93994.00;;;24.03;61.56
52105;BME280;38103;42.776;23.112;2022-09-09T14:33:32;93992.13;;;23.76;61.54
52105;BME280;38103;42.776;23.112;2022-09-09T14:36:03;93992.16;;;23.68;62.85
52105;BME280;38103;42.776;23.112;2022-09-09T14:38:33;93984.53;;;23.79;63.59
52105;BME280;38103;42.776;23.112;2022-09-09T14:41:00;93982.47;;;23.75;62.71
52105;BME280;38103;42.776;23.112;2022-09-09T14:43:28;93983.72;;;23.78;63.88
52105;BME280;38103;42.776;23.112;2022-09-09T14:45:55;93982.31;;;23.63;63.15
52105;BME280;38103;42.776;23.112;2022-09-09T14:48:20;93982.31;;;23.63;63.27
52105;BME280;38103;42.776;23.112;2022-09-09T14:50:45;93985.00;;;23.72;63.09
52105;BME280;38103;42.776;23.112;2022-09-09T14:53:11;93985.16;;;23.75;63.05
52105;BME280;38103;42.776;23.112;2022-09-09T14:55:37;93939.56;;;23.47;63.62
52105;BME280;38103;42.776;23.112;2022-09-09T14:58:04;93991.97;;;23.82;64.21
52105;BME280;38103;42.776;23.112;2022-09-09T15:00:30;93997.19;;;23.87;63.98
52105;BME280;38103;42.776;23.112;2022-09-09T15:02:55;93994.22;;;23.88;64.32
52105;BME280;38103;42.776;23.112;2022-09-09T15:05:22;93990.53;;;23.84;64.36